createdAt,value
2022-07-28T00:03:12.551Z,100338.84
2022-07-28T00:08:14.088Z,100341.53
2022-07-28T00:13:15.569Z,100337.50
2022-07-28T00:18:17.030Z,100326.47
2022-07-28T00:23:18.508Z,100331.09
2022-07-28T00:28:19.952Z,100321.06
2022-07-28T00:33:22.018Z,100313.56
2022-07-28T00:38:23.995Z,100318.09
2022-07-28T00:43:25.448Z,100311.38
2022-07-28T00:48:26.920Z,100309.50
2022-07-28T00:53:29.440Z,100304.88
2022-07-28T00:58:31.325Z,100296.81
2022-07-28T01:03:34.371Z,100296.06
2022-07-28T01:09:12.132Z,100290.63
2022-07-28T01:14:23.837Z,100292.69
2022-07-28T01:19:28.302Z,100291.03
2022-07-28T01:24:41.101Z,100290.94
2022-07-28T01:30:10.950Z,100283.41
2022-07-28T01:35:26.281Z,100285.66
2022-07-28T01:40:33.903Z,100270.91
2022-07-28T01:45:38.074Z,100273.28
2022-07-28T01:50:41.756Z,100272.00
2022-07-28T01:55:44.773Z,100274.06
2022-07-28T02:00:49.761Z,100276.94
2022-07-28T02:05:54.130Z,100269.53
2022-07-28T02:11:16.419Z,100273.38
2022-07-28T02:16:22.291Z,100262.31
2022-07-28T02:21:26.051Z,100257.13
2022-07-28T02:26:32.209Z,100242.25
2022-07-28T02:31:42.194Z,100253.16
2022-07-28T02:36:51.005Z,100248.47
2022-07-28T02:42:04.615Z,100242.97
2022-07-28T02:47:10.542Z,100229.09
2022-07-28T02:52:13.836Z,100236.31
2022-07-28T02:57:17.517Z,100238.50
2022-07-28T03:02:22.806Z,100242.13
2022-07-28T03:07:28.934Z,100246.16
2022-07-28T03:12:31.157Z,100242.38
2022-07-28T03:17:32.660Z,100241.19
2022-07-28T03:22:34.199Z,100244.25
2022-07-28T03:27:39.937Z,100244.59
2022-07-28T03:32:47.010Z,100259.50
2022-07-28T03:38:01.747Z,100259.66
2022-07-28T03:43:08.065Z,100259.88
2022-07-28T03:48:09.630Z,100250.66
2022-07-28T03:53:20.403Z,100249.19
2022-07-28T03:58:26.335Z,100252.88
2022-07-28T04:03:42.951Z,100247.72
2022-07-28T04:08:45.675Z,100252.59
2022-07-28T04:13:47.149Z,100241.75
2022-07-28T04:18:48.666Z,100251.13
2022-07-28T04:23:50.385Z,100246.03
2022-07-28T04:28:51.834Z,100247.31
2022-07-28T04:33:53.364Z,100257.69
2022-07-28T04:38:54.916Z,100241.41
2022-07-28T04:43:56.384Z,100247.72
2022-07-28T04:48:57.884Z,100242.63
2022-07-28T04:53:59.420Z,100240.97
2022-07-28T04:59:01.679Z,100252.41
2022-07-28T05:04:06.101Z,100239.25
2022-07-28T05:09:08.005Z,100235.25
2022-07-28T05:14:12.611Z,100236.22
2022-07-28T05:19:14.873Z,100238.91
2022-07-28T05:24:16.863Z,100231.75
2022-07-28T05:29:18.776Z,100227.50
2022-07-28T05:34:20.384Z,100234.41
2022-07-28T05:39:21.897Z,100227.94
2022-07-28T05:44:23.550Z,100223.44
2022-07-28T05:49:25.261Z,100229.06
2022-07-28T05:54:27.059Z,100229.53
2022-07-28T05:59:28.517Z,100229.06
2022-07-28T06:04:30.294Z,100237.69
2022-07-28T06:09:32.130Z,100227.81
2022-07-28T06:14:33.782Z,100220.03
2022-07-28T06:19:35.284Z,100210.75
2022-07-28T06:24:37.178Z,100201.44
2022-07-28T06:29:38.634Z,100205.38
2022-07-28T06:34:41.529Z,100199.59
2022-07-28T06:39:42.988Z,100200.81
2022-07-28T06:44:58.337Z,100201.94
2022-07-28T06:50:01.145Z,100198.53
2022-07-28T06:55:06.414Z,100200.41
2022-07-28T07:00:09.200Z,100195.13
2022-07-28T07:05:12.037Z,100185.13
2022-07-28T07:10:13.583Z,100189.22
2022-07-28T07:15:15.247Z,100187.41
2022-07-28T07:20:17.240Z,100186.88
2022-07-28T07:25:21.074Z,100190.19
2022-07-28T07:30:22.695Z,100179.28
2022-07-28T07:35:24.160Z,100183.59
2022-07-28T07:40:25.598Z,100182.00
2022-07-28T07:45:27.419Z,100187.25
2022-07-28T07:50:29.703Z,100177.81
2022-07-28T07:55:36.291Z,100177.94
2022-07-28T08:00:40.849Z,100169.81
2022-07-28T08:05:43.203Z,100165.63
2022-07-28T08:10:44.690Z,100168.25
2022-07-28T08:15:46.851Z,100161.00
2022-07-28T08:20:48.437Z,100157.97
2022-07-28T08:25:50.088Z,100149.75
2022-07-28T08:30:51.574Z,100155.56
2022-07-28T08:35:53.123Z,100144.97
2022-07-28T08:40:57.106Z,100144.81
2022-07-28T08:46:01.844Z,100142.88
2022-07-28T08:51:09.879Z,100130.75
2022-07-28T08:56:15.914Z,100136.59
2022-07-28T09:01:17.778Z,100133.63
2022-07-28T09:06:21.702Z,100127.91
2022-07-28T09:11:28.093Z,100135.66
2022-07-28T09:16:29.704Z,100125.38
2022-07-28T09:21:31.432Z,100122.81
2022-07-28T09:26:32.904Z,100125.50
2022-07-28T09:31:34.544Z,100119.13
2022-07-28T09:36:41.399Z,100121.19
2022-07-28T09:41:48.389Z,100117.28
2022-07-28T09:46:51.028Z,100110.03
2022-07-28T09:52:03.757Z,100091.91
2022-07-28T09:57:10.652Z,100102.88
2022-07-28T10:02:12.816Z,100072.41
2022-07-28T10:07:17.024Z,100067.41
2022-07-28T10:12:24.376Z,100066.06
2022-07-28T10:17:34.274Z,100071.41
2022-07-28T10:22:42.821Z,100061.94
2022-07-28T10:27:48.032Z,100057.84
2022-07-28T10:32:50.144Z,100060.75
2022-07-28T10:37:58.519Z,100062.84
2022-07-28T10:43:00.264Z,100050.63
2022-07-28T10:48:02.951Z,100064.88
2022-07-28T10:53:07.737Z,100051.09
2022-07-28T10:58:29.007Z,100056.03
2022-07-28T11:03:50.886Z,100050.00
2022-07-28T11:08:53.313Z,100044.81
2022-07-28T11:14:26.945Z,100034.75
2022-07-28T11:20:06.861Z,100030.88
2022-07-28T11:25:21.199Z,100022.84
2022-07-28T11:30:32.791Z,100018.72
2022-07-28T11:35:40.222Z,100003.81
2022-07-28T11:40:54.004Z,100006.25
2022-07-28T11:46:01.579Z,99996.38
2022-07-28T11:51:03.080Z,99996.91
2022-07-28T11:56:15.441Z,99994.28
2022-07-28T12:01:19.693Z,99990.13
2022-07-28T12:06:27.316Z,99986.41
2022-07-28T12:11:33.641Z,99969.47
2022-07-28T12:16:37.621Z,99978.91
2022-07-28T12:21:48.423Z,99985.34
2022-07-28T12:26:50.938Z,99958.81
2022-07-28T12:31:59.231Z,99965.00
2022-07-28T12:37:03.115Z,99958.56
2022-07-28T12:42:06.920Z,99951.41
2022-07-28T12:47:11.948Z,99946.78
2022-07-28T12:52:25.108Z,99948.81
2022-07-28T12:57:44.531Z,99943.38
2022-07-28T13:02:52.141Z,99942.34
2022-07-28T13:08:01.988Z,99930.94
2022-07-28T13:13:07.943Z,99929.34
2022-07-28T13:18:09.886Z,99928.97
2022-07-28T13:23:11.327Z,99928.38
2022-07-28T13:28:26.312Z,99913.69
2022-07-28T13:33:28.484Z,99911.47
2022-07-28T13:38:30.158Z,99902.16
2022-07-28T13:43:35.835Z,99909.84
2022-07-28T13:48:57.334Z,99893.94
2022-07-28T13:54:00.655Z,99899.38
2022-07-28T13:59:02.114Z,99891.66
2022-07-28T14:04:04.504Z,99870.97
2022-07-28T14:09:06.940Z,99870.97
2022-07-28T14:14:08.463Z,99881.28
2022-07-28T14:19:16.349Z,99868.47
2022-07-28T14:24:24.718Z,99877.00
2022-07-28T14:29:27.701Z,99869.69
2022-07-28T14:34:29.359Z,99862.44
2022-07-28T14:39:30.859Z,99863.44
2022-07-28T14:44:32.318Z,99866.25
2022-07-28T14:49:35.091Z,99847.47
2022-07-28T14:54:36.591Z,99849.38
2022-07-28T14:59:38.032Z,99859.19
2022-07-28T15:04:40.283Z,99846.28
2022-07-28T15:09:43.468Z,99851.16
2022-07-28T15:14:46.600Z,99832.88
2022-07-28T15:19:48.128Z,99852.53
2022-07-28T15:24:49.879Z,99837.59
2022-07-28T15:29:52.340Z,99845.19
2022-07-28T15:34:54.129Z,99850.84
2022-07-28T15:39:55.863Z,99838.44
2022-07-28T15:45:01.044Z,99830.97
2022-07-28T15:50:03.007Z,99824.00
2022-07-28T15:55:05.003Z,99823.22
2022-07-28T16:00:07.330Z,99824.56
2022-07-28T16:05:08.963Z,99827.06
2022-07-28T16:10:10.610Z,99827.44
2022-07-28T16:15:12.879Z,99811.94
2022-07-28T16:20:14.366Z,99815.97
2022-07-28T16:25:20.992Z,99817.97
2022-07-28T16:30:22.487Z,99814.81
2022-07-28T16:35:24.632Z,99809.28
2022-07-28T16:40:26.277Z,99807.41
2022-07-28T16:45:30.714Z,99802.97
2022-07-28T16:50:33.075Z,99809.31
2022-07-28T16:55:34.626Z,99809.66
2022-07-28T17:00:36.258Z,99810.22
2022-07-28T17:05:37.917Z,99807.28
2022-07-28T17:10:39.471Z,99813.47
2022-07-28T17:15:41.095Z,99806.66
2022-07-28T17:20:42.657Z,99819.78
2022-07-28T17:26:35.226Z,99823.03
2022-07-28T17:31:05.616Z,99828.78
2022-07-28T17:36:07.451Z,99821.16
2022-07-28T17:41:09.449Z,99823.53
2022-07-28T17:46:11.272Z,99829.16
2022-07-28T17:51:14.251Z,99840.34
2022-07-28T17:56:15.788Z,99839.53
2022-07-28T18:01:17.830Z,99846.91
2022-07-28T18:06:19.321Z,99846.38
2022-07-28T18:11:21.377Z,99846.13
2022-07-28T18:16:22.948Z,99842.75
2022-07-28T18:21:26.489Z,99851.63
2022-07-28T18:26:28.058Z,99853.38
2022-07-28T18:31:29.674Z,99858.25
2022-07-28T18:36:31.799Z,99842.53
2022-07-28T18:41:46.652Z,99838.41
2022-07-28T18:46:49.307Z,99845.38
2022-07-28T18:51:52.003Z,99838.94
2022-07-28T18:56:53.438Z,99849.00
2022-07-28T19:01:55.099Z,99854.81
2022-07-28T19:06:56.638Z,99858.16
2022-07-28T19:11:58.206Z,99867.88
2022-07-28T19:17:01.841Z,99873.53
2022-07-28T19:22:06.435Z,99872.47
2022-07-28T19:27:09.136Z,99875.44
2022-07-28T19:32:10.631Z,99872.66
2022-07-28T19:37:15.771Z,99894.41
2022-07-28T19:42:18.954Z,99898.84
2022-07-28T19:47:20.410Z,99908.97
2022-07-28T19:52:24.001Z,99914.97
2022-07-28T19:57:25.832Z,99936.81
2022-07-28T20:02:27.770Z,99938.06
2022-07-28T20:07:29.285Z,99945.97
2022-07-28T20:12:36.110Z,99952.97
2022-07-28T20:17:39.723Z,99955.19
2022-07-28T20:22:41.779Z,99961.13
2022-07-28T20:27:43.457Z,99952.91
2022-07-28T20:32:44.977Z,99960.19
2022-07-28T20:37:46.441Z,99975.38
2022-07-28T20:42:52.805Z,99965.53
2022-07-28T20:47:54.684Z,99981.34
2022-07-28T20:52:56.270Z,99994.81
2022-07-28T20:57:57.823Z,100018.38
2022-07-28T21:02:59.334Z,100028.34
2022-07-28T21:08:04.649Z,100022.09
2022-07-28T21:13:08.423Z,100029.00
2022-07-28T21:18:10.677Z,100025.19
2022-07-28T21:23:12.507Z,100029.00
2022-07-28T21:28:32.956Z,100031.97
2022-07-28T21:33:34.530Z,100043.91
2022-07-28T21:38:36.043Z,100038.41
2022-07-28T21:43:37.709Z,100039.94
2022-07-28T21:48:39.674Z,100042.88
2022-07-28T21:53:42.139Z,100039.81
2022-07-28T21:58:44.376Z,100050.28
2022-07-28T22:03:45.843Z,100043.75
2022-07-28T22:08:50.350Z,100058.19
2022-07-28T22:13:51.827Z,100055.63
2022-07-28T22:18:53.271Z,100057.94
2022-07-28T22:23:54.826Z,100054.13
2022-07-28T22:28:56.306Z,100051.28
2022-07-28T22:33:57.778Z,100053.63
2022-07-28T22:38:59.292Z,100041.72
2022-07-28T22:44:00.869Z,100034.59
2022-07-28T22:49:02.412Z,100022.47
2022-07-28T22:54:04.121Z,100029.53
2022-07-28T22:59:05.901Z,100034.44
2022-07-28T23:04:07.579Z,100036.13
2022-07-28T23:09:09.247Z,100026.63
2022-07-28T23:14:10.675Z,100029.34
2022-07-28T23:19:12.430Z,100025.56
2022-07-28T23:24:14.197Z,100025.06
2022-07-28T23:29:15.893Z,100037.53
2022-07-28T23:34:17.664Z,100034.38
2022-07-28T23:39:19.370Z,100032.72
2022-07-28T23:44:20.801Z,100036.53
2022-07-28T23:49:22.520Z,100035.41
2022-07-28T23:54:24.073Z,100043.84
2022-07-28T23:59:25.545Z,100036.59
